createdAt,value
2023-02-11T00:01:00.478Z,101859.03
2023-02-11T00:03:27.186Z,101860.78
2023-02-11T00:05:58.841Z,101846.84
2023-02-11T00:08:25.492Z,101838.16
2023-02-11T00:10:57.110Z,101829.47
2023-02-11T00:13:25.440Z,101826.81
2023-02-11T00:15:52.473Z,101829.44
2023-02-11T00:18:19.176Z,101822.41
2023-02-11T00:20:45.843Z,101806.72
2023-02-11T00:23:13.087Z,101819.75
2023-02-11T00:25:41.438Z,101817.88
2023-02-11T00:28:09.212Z,101812.66
2023-02-11T00:30:36.186Z,101796.97
2023-02-11T00:33:03.938Z,101795.19
2023-02-11T00:35:30.523Z,101789.00
2023-02-11T00:37:57.328Z,101796.84
2023-02-11T00:40:24.048Z,101799.50
2023-02-11T00:42:50.672Z,101791.63
2023-02-11T00:45:17.469Z,101791.63
2023-02-11T00:47:44.046Z,101794.19
2023-02-11T00:50:10.698Z,101778.47
2023-02-11T00:52:37.340Z,101766.25
2023-02-11T00:55:04.361Z,101767.16
2023-02-11T00:57:31.009Z,101757.50
2023-02-11T00:59:57.660Z,101755.75
2023-02-11T01:02:24.283Z,101736.53
2023-02-11T01:04:50.921Z,101725.19
2023-02-11T01:07:17.557Z,101725.16
2023-02-11T01:09:44.173Z,101730.34
2023-02-11T01:12:10.756Z,101712.94
2023-02-11T01:14:37.432Z,101726.88
2023-02-11T01:17:06.164Z,101728.63
2023-02-11T01:19:32.770Z,101741.69
2023-02-11T01:21:59.749Z,101741.59
2023-02-11T01:24:26.554Z,101738.13
2023-02-11T01:26:53.215Z,101746.94
2023-02-11T01:29:19.998Z,101751.16
2023-02-11T01:31:46.827Z,101748.44
2023-02-11T01:34:13.903Z,101749.41
2023-02-11T01:36:40.916Z,101755.44
2023-02-11T01:39:08.749Z,101741.44
2023-02-11T01:41:35.631Z,101743.97
2023-02-11T01:44:32.021Z,101714.31
2023-02-11T01:46:58.750Z,101723.91
2023-02-11T01:49:30.066Z,101715.19
2023-02-11T01:52:10.022Z,101720.31
2023-02-11T01:55:02.822Z,101708.09
2023-02-11T01:57:32.455Z,101707.13
2023-02-11T02:00:08.211Z,101698.38
2023-02-11T02:02:43.831Z,101693.94
2023-02-11T02:05:22.254Z,101686.03
2023-02-11T02:08:09.791Z,101700.81
2023-02-11T02:10:41.414Z,101678.94
2023-02-11T02:13:08.028Z,101693.81
2023-02-11T02:15:37.482Z,101682.41
2023-02-11T02:18:39.438Z,101682.34
2023-02-11T02:21:43.076Z,101701.50
2023-02-11T02:24:24.859Z,101703.19
2023-02-11T02:27:19.522Z,101686.53
2023-02-11T02:30:14.078Z,101698.75
2023-02-11T02:32:46.494Z,101696.91
2023-02-11T02:35:13.032Z,101688.19
2023-02-11T02:38:18.995Z,101684.63
2023-02-11T02:40:52.406Z,101677.63
2023-02-11T02:43:20.950Z,101663.72
2023-02-11T02:45:47.712Z,101661.88
2023-02-11T02:48:27.306Z,101667.00
2023-02-11T02:51:15.830Z,101661.78
2023-02-11T02:54:13.238Z,101662.59
2023-02-11T02:57:25.955Z,101660.00
2023-02-11T03:00:11.160Z,101645.03
2023-02-11T03:03:05.692Z,101662.38
2023-02-11T03:05:49.828Z,101656.19
2023-02-11T03:08:40.293Z,101662.38
2023-02-11T03:11:10.302Z,101662.28
2023-02-11T03:13:39.492Z,101666.69
2023-02-11T03:16:13.883Z,101671.88
2023-02-11T03:18:44.298Z,101672.75
2023-02-11T03:21:12.139Z,101667.44
2023-02-11T03:23:53.866Z,101690.25
2023-02-11T03:26:32.644Z,101665.75
2023-02-11T03:29:17.193Z,101656.16
2023-02-11T03:32:17.322Z,101635.97
2023-02-11T03:34:58.217Z,101637.75
2023-02-11T03:37:45.407Z,101639.47
2023-02-11T03:40:20.084Z,101629.88
2023-02-11T03:42:53.437Z,101632.44
2023-02-11T03:45:22.693Z,101623.81
2023-02-11T03:47:55.716Z,101615.00
2023-02-11T03:50:24.153Z,101618.50
2023-02-11T03:52:51.693Z,101621.94
2023-02-11T03:55:21.157Z,101614.84
2023-02-11T03:57:48.080Z,101619.31
2023-02-11T04:00:15.230Z,101615.75
2023-02-11T04:02:42.629Z,101607.16
2023-02-11T04:05:11.228Z,101612.22
2023-02-11T04:07:37.838Z,101599.13
2023-02-11T04:10:04.810Z,101606.03
2023-02-11T04:12:31.481Z,101596.50
2023-02-11T04:14:58.110Z,101606.94
2023-02-11T04:17:24.683Z,101601.66
2023-02-11T04:19:51.255Z,101604.31
2023-02-11T04:22:17.871Z,101616.44
2023-02-11T04:24:44.489Z,101603.34
2023-02-11T04:27:11.087Z,101612.03
2023-02-11T04:29:37.875Z,101607.69
2023-02-11T04:32:04.575Z,101612.03
2023-02-11T04:34:31.312Z,101615.50
2023-02-11T04:36:57.964Z,101613.81
2023-02-11T04:39:24.567Z,101627.75
2023-02-11T04:41:51.102Z,101615.59
2023-02-11T04:44:17.659Z,101627.03
2023-02-11T04:46:44.256Z,101627.00
2023-02-11T04:49:15.503Z,101628.75
2023-02-11T04:51:42.449Z,101633.16
2023-02-11T04:54:08.994Z,101621.03
2023-02-11T04:56:35.565Z,101628.97
2023-02-11T04:59:02.444Z,101635.06
2023-02-11T05:01:29.088Z,101644.78
2023-02-11T05:03:55.777Z,101628.47
2023-02-11T05:06:22.449Z,101637.50
2023-02-11T05:08:49.117Z,101635.81
2023-02-11T05:11:21.069Z,101637.59
2023-02-11T05:13:48.290Z,101636.75
2023-02-11T05:16:15.748Z,101636.78
2023-02-11T05:18:43.740Z,101624.56
2023-02-11T05:21:16.107Z,101628.97
2023-02-11T05:23:43.235Z,101609.69
2023-02-11T05:26:10.969Z,101629.75
2023-02-11T05:28:38.596Z,101627.97
2023-02-11T05:31:05.757Z,101627.13
2023-02-11T05:33:32.658Z,101611.50
2023-02-11T05:36:00.573Z,101616.78
2023-02-11T05:38:27.712Z,101614.19
2023-02-11T05:40:54.847Z,101608.97
2023-02-11T05:43:21.665Z,101614.22
2023-02-11T05:45:48.521Z,101608.22
2023-02-11T05:48:15.368Z,101603.88
2023-02-11T05:50:42.318Z,101601.34
2023-02-11T05:53:09.004Z,101597.84
2023-02-11T05:55:35.813Z,101609.19
2023-02-11T05:58:02.538Z,101603.94
2023-02-11T06:00:29.339Z,101602.19
2023-02-11T06:02:56.160Z,101607.38
2023-02-11T06:05:22.773Z,101582.00
2023-02-11T06:07:49.384Z,101588.09
2023-02-11T06:10:18.890Z,101588.94
2023-02-11T06:12:45.457Z,101595.88
2023-02-11T06:15:12.174Z,101584.63
2023-02-11T06:17:38.854Z,101588.03
2023-02-11T06:20:08.602Z,101581.84
2023-02-11T06:22:35.303Z,101600.25
2023-02-11T06:25:02.539Z,101581.84
2023-02-11T06:27:29.861Z,101584.41
2023-02-11T06:29:56.724Z,101573.03
2023-02-11T06:32:46.619Z,101576.50
2023-02-11T06:35:12.140Z,101567.66
2023-02-11T06:37:39.260Z,101577.25
2023-02-11T06:40:06.367Z,101570.19
2023-02-11T06:42:33.066Z,101564.00
2023-02-11T06:44:59.712Z,101561.38
2023-02-11T06:47:26.365Z,101567.47
2023-02-11T06:49:52.969Z,101568.31
2023-02-11T06:52:19.552Z,101556.91
2023-02-11T06:54:46.186Z,101545.56
2023-02-11T06:57:12.767Z,101562.22
2023-02-11T06:59:39.312Z,101556.06
2023-02-11T07:02:05.925Z,101580.59
2023-02-11T07:04:32.572Z,101556.22
2023-02-11T07:06:59.131Z,101559.72
2023-02-11T07:09:25.769Z,101551.91
2023-02-11T07:11:52.473Z,101553.78
2023-02-11T07:14:19.155Z,101519.00
2023-02-11T07:16:45.785Z,101554.81
2023-02-11T07:19:12.510Z,101549.59
2023-02-11T07:21:39.194Z,101556.59
2023-02-11T07:24:11.167Z,101544.31
2023-02-11T07:26:38.541Z,101558.44
2023-02-11T07:29:05.269Z,101553.91
2023-02-11T07:31:32.804Z,101564.34
2023-02-11T07:34:01.160Z,101587.84
2023-02-11T07:36:29.755Z,101572.13
2023-02-11T07:38:56.727Z,101574.72
2023-02-11T07:41:25.217Z,101574.75
2023-02-11T07:43:52.419Z,101574.75
2023-02-11T07:46:25.293Z,101558.19
2023-02-11T07:48:52.330Z,101575.53
2023-02-11T07:51:25.484Z,101566.03
2023-02-11T07:53:52.758Z,101565.94
2023-02-11T07:56:20.643Z,101572.88
2023-02-11T07:58:47.273Z,101576.28
2023-02-11T08:01:19.751Z,101574.47
2023-02-11T08:03:46.639Z,101570.06
2023-02-11T08:06:17.666Z,101576.91
2023-02-11T08:08:44.930Z,101550.66
2023-02-11T08:11:15.715Z,101560.28
2023-02-11T08:13:42.780Z,101554.94
2023-02-11T08:16:16.935Z,101574.13
2023-02-11T08:18:43.553Z,101573.84
2023-02-11T08:21:10.975Z,101579.97
2023-02-11T08:23:38.810Z,101579.06
2023-02-11T08:26:08.538Z,101592.25
2023-02-11T08:28:36.130Z,101577.34
2023-02-11T08:31:11.467Z,101576.56
2023-02-11T08:33:40.412Z,101578.22
2023-02-11T08:36:18.673Z,101569.53
2023-02-11T08:38:45.293Z,101561.53
2023-02-11T08:41:14.818Z,101556.38
2023-02-11T08:43:42.365Z,101559.81
2023-02-11T08:46:12.202Z,101553.69
2023-02-11T08:48:38.838Z,101549.09
2023-02-11T08:51:27.619Z,101551.53
2023-02-11T08:53:55.265Z,101556.75
2023-02-11T08:56:25.661Z,101588.31
2023-02-11T08:58:53.403Z,101562.94
2023-02-11T09:01:23.158Z,101574.28
2023-02-11T09:03:49.885Z,101570.81
2023-02-11T09:06:18.594Z,101568.91
2023-02-11T09:08:49.356Z,101560.03
2023-02-11T09:11:17.394Z,101586.97
2023-02-11T09:13:44.824Z,101575.75
2023-02-11T09:16:20.253Z,101572.06
2023-02-11T09:18:47.254Z,101576.38
2023-02-11T09:21:15.319Z,101557.91
2023-02-11T09:23:44.714Z,101582.56
2023-02-11T09:26:15.248Z,101590.41
2023-02-11T09:28:41.960Z,101583.38
2023-02-11T09:31:11.600Z,101579.09
2023-02-11T09:33:40.197Z,101596.59
2023-02-11T09:36:07.241Z,101616.84
2023-02-11T09:38:34.150Z,101587.16
2023-02-11T09:41:04.040Z,101603.00
2023-02-11T09:43:44.343Z,101628.91
2023-02-11T09:46:16.094Z,101602.69
2023-02-11T09:48:46.098Z,101594.75
2023-02-11T09:51:23.820Z,101594.00
2023-02-11T09:54:00.325Z,101587.78
2023-02-11T09:56:28.241Z,101592.03
2023-02-11T09:58:54.860Z,101583.50
2023-02-11T10:01:33.798Z,101575.63
2023-02-11T10:04:20.673Z,101587.03
2023-02-11T10:06:50.625Z,101573.66
2023-02-11T10:09:35.913Z,101590.16
2023-02-11T10:12:25.210Z,101585.78
2023-02-11T10:15:10.099Z,101576.75
2023-02-11T10:17:49.867Z,101565.09
2023-02-11T10:20:28.563Z,101582.72
2023-02-11T10:23:01.341Z,101575.72
2023-02-11T10:25:35.872Z,101578.47
2023-02-11T10:28:15.148Z,101575.69
2023-02-11T10:31:15.789Z,101575.75
2023-02-11T10:33:56.562Z,101587.97
2023-02-11T10:36:29.099Z,101578.22
2023-02-11T10:38:55.964Z,101560.38
2023-02-11T10:41:34.421Z,101586.34
2023-02-11T10:44:01.799Z,101591.44
2023-02-11T10:46:34.896Z,101602.78
2023-02-11T10:49:03.407Z,101572.25
2023-02-11T10:51:34.301Z,101574.97
2023-02-11T10:54:03.912Z,101595.03
2023-02-11T10:56:34.055Z,101569.53
2023-02-11T10:59:04.682Z,101544.09
2023-02-11T11:01:40.726Z,101542.38
2023-02-11T11:04:34.665Z,101544.19
2023-02-11T11:07:23.886Z,101567.84
2023-02-11T11:10:00.249Z,101549.34
2023-02-11T11:12:32.574Z,101569.41
2023-02-11T11:15:04.230Z,101561.50
2023-02-11T11:17:30.958Z,101558.78
2023-02-11T11:20:22.654Z,101552.59
2023-02-11T11:22:51.170Z,101558.72
2023-02-11T11:25:29.552Z,101559.66
2023-02-11T11:27:59.482Z,101564.75
2023-02-11T11:30:34.684Z,101557.63
2023-02-11T11:33:01.919Z,101554.09
2023-02-11T11:35:32.974Z,101566.50
2023-02-11T11:38:03.317Z,101573.50
2023-02-11T11:40:32.685Z,101561.19
2023-02-11T11:43:23.144Z,101558.59
2023-02-11T11:45:58.860Z,101560.16
2023-02-11T11:48:35.177Z,101554.69
2023-02-11T11:51:05.920Z,101557.28
2023-02-11T11:53:38.034Z,101551.22
2023-02-11T11:56:09.182Z,101566.09
2023-02-11T11:58:35.822Z,101559.03
2023-02-11T12:01:19.137Z,101574.72
2023-02-11T12:04:10.672Z,101570.16
2023-02-11T12:06:51.401Z,101575.31
2023-02-11T12:09:39.767Z,101586.88
2023-02-11T12:12:32.563Z,101571.22
2023-02-11T12:15:23.650Z,101579.13
2023-02-11T12:18:15.830Z,101581.88
2023-02-11T12:20:51.922Z,101571.41
2023-02-11T12:23:42.518Z,101569.78
2023-02-11T12:26:15.094Z,101580.13
2023-02-11T12:29:02.129Z,101570.59
2023-02-11T12:31:56.619Z,101575.75
2023-02-11T12:34:52.108Z,101576.91
2023-02-11T12:37:24.702Z,101579.84
2023-02-11T12:39:54.635Z,101585.75
2023-02-11T12:43:04.409Z,101595.59
2023-02-11T12:45:52.401Z,101589.44
2023-02-11T12:48:56.999Z,101581.66
2023-02-11T12:51:32.814Z,101587.78
2023-02-11T12:54:18.177Z,101586.00
2023-02-11T12:56:55.827Z,101574.69
2023-02-11T12:59:56.553Z,101583.44
2023-02-11T13:02:41.894Z,101566.84
2023-02-11T13:05:23.289Z,101570.38
2023-02-11T13:07:53.045Z,101582.63
2023-02-11T13:10:26.056Z,101568.53
2023-02-11T13:13:14.608Z,101555.44
2023-02-11T13:15:44.055Z,101560.56
2023-02-11T13:18:39.006Z,101550.97
2023-02-11T13:21:11.603Z,101564.03
2023-02-11T13:23:50.839Z,101540.34
2023-02-11T13:26:46.197Z,101534.16
2023-02-11T13:29:15.687Z,101523.63
2023-02-11T13:31:42.336Z,101540.13
2023-02-11T13:34:24.928Z,101542.91
2023-02-11T13:36:56.560Z,101511.13
2023-02-11T13:39:23.627Z,101543.47
2023-02-11T13:41:52.920Z,101540.59
2023-02-11T13:44:23.664Z,101530.97
2023-02-11T13:47:02.457Z,101546.72
2023-02-11T13:49:49.145Z,101548.59
2023-02-11T13:52:25.180Z,101545.22
2023-02-11T13:54:54.223Z,101522.41
2023-02-11T13:57:20.811Z,101525.00
2023-02-11T13:59:53.363Z,101524.19
2023-02-11T14:02:44.705Z,101536.41
2023-02-11T14:05:45.274Z,101532.13
2023-02-11T14:08:30.033Z,101534.88
2023-02-11T14:11:21.008Z,101536.63
2023-02-11T14:13:47.579Z,101568.03
2023-02-11T14:16:36.522Z,101552.28
2023-02-11T14:19:06.345Z,101548.72
2023-02-11T14:21:47.383Z,101542.59
2023-02-11T14:24:14.379Z,101553.97
2023-02-11T14:26:51.726Z,101544.28
2023-02-11T14:29:42.543Z,101554.91
2023-02-11T14:32:24.191Z,101559.09
2023-02-11T14:35:05.140Z,101538.03
2023-02-11T14:37:37.917Z,101546.78
2023-02-11T14:40:10.530Z,101551.22
2023-02-11T14:42:38.767Z,101550.34
2023-02-11T14:45:09.186Z,101537.97
2023-02-11T14:47:46.903Z,101547.69
2023-02-11T14:50:19.311Z,101552.00
2023-02-11T14:52:46.406Z,101551.19
2023-02-11T14:55:29.783Z,101559.91
2023-02-11T14:58:27.438Z,101548.59
2023-02-11T15:01:00.893Z,101551.16
2023-02-11T15:03:35.617Z,101543.34
2023-02-11T15:06:14.674Z,101555.44
2023-02-11T15:08:45.807Z,101550.25
2023-02-11T15:11:15.908Z,101549.31
2023-02-11T15:13:49.810Z,101556.34
2023-02-11T15:16:21.604Z,101560.72
2023-02-11T15:18:51.941Z,101559.91
2023-02-11T15:21:45.755Z,101555.44
2023-02-11T15:24:27.888Z,101555.44
2023-02-11T15:26:58.318Z,101559.78
2023-02-11T15:29:27.788Z,101551.91
2023-02-11T15:32:18.434Z,101546.50
2023-02-11T15:34:46.705Z,101563.09
2023-02-11T15:37:24.608Z,101553.44
2023-02-11T15:39:52.480Z,101557.84
2023-02-11T15:42:28.133Z,101551.78
2023-02-11T15:45:16.514Z,101565.72
2023-02-11T15:47:50.754Z,101551.84
2023-02-11T15:50:21.750Z,101558.00
2023-02-11T15:52:49.799Z,101551.91
2023-02-11T15:55:18.016Z,101546.72
2023-02-11T15:58:00.866Z,101555.75
2023-02-11T16:00:35.953Z,101568.16
2023-02-11T16:03:03.113Z,101570.91
2023-02-11T16:05:31.766Z,101563.91
2023-02-11T16:07:59.898Z,101562.19
2023-02-11T16:10:34.405Z,101562.22
2023-02-11T16:13:07.175Z,101583.25
2023-02-11T16:15:33.867Z,101576.41
2023-02-11T16:18:03.237Z,101583.47
2023-02-11T16:20:30.340Z,101584.47
2023-02-11T16:22:57.149Z,101588.94
2023-02-11T16:25:24.072Z,101595.06
2023-02-11T16:27:54.651Z,101587.19
2023-02-11T16:30:28.687Z,101597.78
2023-02-11T16:32:55.251Z,101593.41
2023-02-11T16:35:21.927Z,101600.50
2023-02-11T16:37:48.692Z,101612.00
2023-02-11T16:40:15.563Z,101611.25
2023-02-11T16:42:42.264Z,101610.56
2023-02-11T16:45:09.525Z,101587.91
2023-02-11T16:47:40.895Z,101609.94
2023-02-11T16:50:18.959Z,101615.09
2023-02-11T16:52:46.369Z,101594.28
2023-02-11T16:55:13.258Z,101623.19
2023-02-11T16:57:40.158Z,101602.38
2023-02-11T17:00:07.791Z,101600.59
2023-02-11T17:02:37.184Z,101602.47
2023-02-11T17:05:07.423Z,101616.53
2023-02-11T17:07:34.312Z,101621.03
2023-02-11T17:10:00.985Z,101626.22
2023-02-11T17:12:27.675Z,101638.50
2023-02-11T17:14:54.645Z,101617.47
2023-02-11T17:17:23.614Z,101628.91
2023-02-11T17:19:51.218Z,101633.16
2023-02-11T17:22:18.717Z,101606.81
2023-02-11T17:24:45.512Z,101630.41
2023-02-11T17:27:12.811Z,101615.50
2023-02-11T17:29:39.442Z,101638.19
2023-02-11T17:32:06.525Z,101641.50
2023-02-11T17:34:33.215Z,101642.34
2023-02-11T17:37:00.313Z,101648.38
2023-02-11T17:39:27.636Z,101651.75
2023-02-11T17:41:54.195Z,101656.97
2023-02-11T17:44:21.057Z,101640.38
2023-02-11T17:46:47.757Z,101639.31
2023-02-11T17:49:14.637Z,101636.69
2023-02-11T17:51:41.369Z,101623.53
2023-02-11T17:54:13.681Z,101632.31
2023-02-11T17:56:41.471Z,101650.63
2023-02-11T17:59:09.791Z,101663.75
2023-02-11T18:01:38.006Z,101662.81
2023-02-11T18:04:06.095Z,101660.22
2023-02-11T18:06:36.259Z,101666.28
2023-02-11T18:09:04.465Z,101671.53
2023-02-11T18:11:32.931Z,101677.63
2023-02-11T18:14:00.573Z,101675.06
2023-02-11T18:16:28.959Z,101678.56
2023-02-11T18:18:57.449Z,101681.22
2023-02-11T18:21:24.753Z,101688.34
2023-02-11T18:23:51.970Z,101697.78
2023-02-11T18:26:20.837Z,101686.56
2023-02-11T18:28:47.581Z,101702.31
2023-02-11T18:31:15.005Z,101687.31
2023-02-11T18:33:42.692Z,101704.06
2023-02-11T18:36:12.694Z,101701.38
2023-02-11T18:38:39.672Z,101707.47
2023-02-11T18:41:07.356Z,101697.16
2023-02-11T18:43:34.609Z,101723.41
2023-02-11T18:46:02.966Z,101719.03
2023-02-11T18:48:29.738Z,101724.13
2023-02-11T18:50:56.727Z,101725.94
2023-02-11T18:53:24.710Z,101721.38
2023-02-11T18:55:52.773Z,101739.88
2023-02-11T18:58:21.354Z,101745.91
2023-02-11T19:00:49.851Z,101739.69
2023-02-11T19:03:16.680Z,101754.81
2023-02-11T19:05:48.536Z,101751.22
2023-02-11T19:08:15.477Z,101745.06
2023-02-11T19:10:44.202Z,101769.63
2023-02-11T19:13:11.057Z,101753.81
2023-02-11T19:15:45.710Z,101761.72
2023-02-11T19:18:16.315Z,101761.69
2023-02-11T19:20:43.768Z,101772.22
2023-02-11T19:23:11.381Z,101786.19
2023-02-11T19:25:44.329Z,101793.22
2023-02-11T19:28:10.978Z,101795.75
2023-02-11T19:30:37.699Z,101796.47
2023-02-11T19:33:04.386Z,101793.91
2023-02-11T19:35:35.316Z,101790.41
2023-02-11T19:38:03.314Z,101804.44
2023-02-11T19:40:30.171Z,101809.94
2023-02-11T19:42:56.800Z,101807.91
2023-02-11T19:45:23.432Z,101809.84
2023-02-11T19:47:55.062Z,101807.84
2023-02-11T19:50:21.853Z,101802.66
2023-02-11T19:52:48.436Z,101808.97
2023-02-11T19:55:15.074Z,101807.28
2023-02-11T19:57:41.631Z,101811.69
2023-02-11T20:00:09.809Z,101821.25
2023-02-11T20:02:38.083Z,101827.94
2023-02-11T20:05:04.952Z,101823.66
2023-02-11T20:07:31.668Z,101832.41
2023-02-11T20:09:58.301Z,101841.03
2023-02-11T20:12:24.918Z,101842.00
2023-02-11T20:14:51.468Z,101843.75
2023-02-11T20:17:18.039Z,101847.22
2023-02-11T20:19:44.678Z,101857.09
2023-02-11T20:22:11.236Z,101854.47
2023-02-11T20:24:37.881Z,101860.38
2023-02-11T20:27:08.267Z,101854.53
2023-02-11T20:29:34.906Z,101856.97
2023-02-11T20:32:02.959Z,101850.97
2023-02-11T20:34:29.696Z,101850.97
2023-02-11T20:36:56.483Z,101857.94
2023-02-11T20:39:24.416Z,101843.22
2023-02-11T20:41:51.874Z,101843.09
2023-02-11T20:44:18.847Z,101838.63
2023-02-11T20:46:48.864Z,101832.41
2023-02-11T20:49:19.410Z,101828.97
2023-02-11T20:51:46.484Z,101815.84
2023-02-11T20:54:15.558Z,101829.72
2023-02-11T20:56:42.375Z,101828.91
2023-02-11T20:59:09.294Z,101822.66
2023-02-11T21:01:42.731Z,101823.53
2023-02-11T21:04:18.489Z,101823.28
2023-02-11T21:06:47.872Z,101826.97
2023-02-11T21:09:19.659Z,101827.69
2023-02-11T21:11:47.633Z,101835.50
2023-02-11T21:14:14.898Z,101835.47
2023-02-11T21:16:41.676Z,101842.31
2023-02-11T21:19:08.520Z,101835.38
2023-02-11T21:21:36.874Z,101848.44
2023-02-11T21:24:04.270Z,101851.84
2023-02-11T21:26:30.977Z,101845.91
2023-02-11T21:28:57.838Z,101844.03
2023-02-11T21:31:33.113Z,101849.34
2023-02-11T21:34:00.150Z,101853.66
2023-02-11T21:36:28.619Z,101864.16
2023-02-11T21:38:55.253Z,101860.59
2023-02-11T21:41:22.869Z,101872.91
2023-02-11T21:43:50.741Z,101879.19
2023-02-11T21:46:20.945Z,101871.25
2023-02-11T21:48:48.106Z,101877.19
2023-02-11T21:51:26.070Z,101880.84
2023-02-11T21:53:54.705Z,101884.38
2023-02-11T21:56:21.450Z,101893.91
2023-02-11T21:58:53.455Z,101900.34
2023-02-11T22:01:25.971Z,101894.13
2023-02-11T22:03:52.728Z,101904.59
2023-02-11T22:06:26.116Z,101901.88
2023-02-11T22:08:54.041Z,101901.94
2023-02-11T22:11:21.219Z,101902.84
2023-02-11T22:13:48.273Z,101902.09
2023-02-11T22:16:16.873Z,101909.94
2023-02-11T22:18:46.521Z,101910.84
2023-02-11T22:21:16.972Z,101906.44
2023-02-11T22:23:44.004Z,101904.66
2023-02-11T22:26:16.271Z,101913.34
2023-02-11T22:28:43.390Z,101921.13
2023-02-11T22:31:15.712Z,101925.50
2023-02-11T22:33:42.982Z,101932.50
2023-02-11T22:36:16.743Z,101925.53
2023-02-11T22:38:43.524Z,101927.03
2023-02-11T22:41:11.929Z,101937.47
2023-02-11T22:43:39.376Z,101927.03
2023-02-11T22:46:07.469Z,101930.50
2023-02-11T22:48:35.342Z,101929.66
2023-02-11T22:51:13.631Z,101922.69
2023-02-11T22:53:40.512Z,101934.81
2023-02-11T22:56:15.045Z,101946.28
2023-02-11T22:58:42.052Z,101955.91
2023-02-11T23:01:08.689Z,101954.13
2023-02-11T23:03:35.758Z,101954.97
2023-02-11T23:06:02.996Z,101961.84
2023-02-11T23:08:30.649Z,101962.88
2023-02-11T23:11:03.669Z,101969.03
2023-02-11T23:13:30.479Z,101968.97
2023-02-11T23:15:57.308Z,101966.28
2023-02-11T23:18:25.253Z,101967.06
2023-02-11T23:20:56.374Z,101973.25
2023-02-11T23:23:23.048Z,101967.97
2023-02-11T23:25:49.625Z,101967.19
2023-02-11T23:28:16.334Z,101964.47
2023-02-11T23:30:43.026Z,101964.34
2023-02-11T23:33:09.725Z,101984.53
2023-02-11T23:35:36.667Z,101977.50
2023-02-11T23:38:03.531Z,101978.34
2023-02-11T23:40:33.141Z,101975.72
2023-02-11T23:42:59.670Z,101976.56
2023-02-11T23:45:26.380Z,101987.94
2023-02-11T23:47:53.203Z,101980.13
2023-02-11T23:50:19.983Z,101980.00
2023-02-11T23:52:46.614Z,101964.34
2023-02-11T23:55:16.500Z,101975.59
2023-02-11T23:57:43.136Z,101973.09
